Time;durP1;ratioP1;P1;durP2;ratioP2;P2;SDS_P1;SDS_P2;PMS_P1;PMS_P2;Temp;Humidity;BMP_temperature;BMP_pressure;BME280_temperature;BME280_humidity;BME280_pressure;Samples;Min_cycle;Max_cycle;Signal;HPM_P1;HPM_P2
2022/01/17 00:01:12;;;;;;;14.32;1.73;;;5.60;99.90;;;;;;5016079;28;20140;-95
2022/01/17 00:03:38;;;;;;;15.68;1.98;;;5.70;99.90;;;;;;5015909;28;20041;-93
2022/01/17 00:06:03;;;;;;;14.05;2.88;;;5.60;99.90;;;;;;5032687;28;20049;-93
2022/01/17 00:08:29;;;;;;;21.08;2.55;;;5.60;99.90;;;;;;5016177;28;20061;-94
2022/01/17 00:10:55;;;;;;;10.82;1.58;;;5.40;99.90;;;;;;5032508;28;20139;-92
2022/01/17 00:13:27;;;;;;;17.33;2.35;;;5.50;99.90;;;;;;5032238;28;20053;-94
2022/01/17 00:15:58;;;;;;;17.45;2.15;;;5.50;99.90;;;;;;5015736;28;20053;-92
2022/01/17 00:18:52;;;;;;;;;;;5.50;99.90;;;;;;5016278;28;20056;-93
2022/01/17 00:21:14;;;;;;;17.15;2.15;;;5.50;99.90;;;;;;5032188;28;20011;-94
2022/01/17 00:23:40;;;;;;;12.65;2.05;;;5.70;99.90;;;;;;5015803;28;20049;-93
2022/01/17 00:26:06;;;;;;;17.73;1.85;;;5.40;99.90;;;;;;5015824;28;20045;-94
2022/01/17 00:28:33;;;;;;;18.92;2.55;;;5.40;99.90;;;;;;5016361;28;20080;-94
2022/01/17 00:31:01;;;;;;;16.30;2.13;;;5.40;99.90;;;;;;5019685;28;20088;-92
2022/01/17 00:33:27;;;;;;;16.83;1.75;;;5.30;99.90;;;;;;5035951;28;20080;-93
2022/01/17 00:35:53;;;;;;;19.67;2.17;;;5.40;99.90;;;;;;5019277;28;20553;-93
2022/01/17 00:38:19;;;;;;;14.15;2.67;;;5.40;99.90;;;;;;5019526;28;20060;-92
2022/01/17 00:40:45;;;;;;;17.08;2.20;;;5.30;99.90;;;;;;5019088;28;20076;-91
2022/01/17 00:43:12;;;;;;;11.73;1.80;;;5.30;99.90;;;;;;5035462;28;20495;-93
2022/01/17 00:45:40;;;;;;;17.95;1.95;;;5.20;99.90;;;;;;5019242;28;20134;-94
2022/01/17 00:48:07;;;;;;;11.15;2.00;;;4.90;99.90;;;;;;5019146;28;20084;-93
2022/01/17 00:50:34;;;;;;;19.88;1.88;;;5.40;99.90;;;;;;5035759;28;20046;-92
2022/01/17 00:53:04;;;;;;;16.73;2.03;;;5.00;99.90;;;;;;5019111;28;20049;-93
2022/01/17 00:55:31;;;;;;;17.85;1.65;;;5.10;99.90;;;;;;5019079;28;20054;-92
2022/01/17 00:57:57;;;;;;;16.35;1.83;;;5.00;99.90;;;;;;5019021;28;20049;-92
2022/01/17 01:00:22;;;;;;;10.05;1.23;;;5.00;99.90;;;;;;5035722;28;20068;-93
2022/01/17 01:02:49;;;;;;;14.25;1.63;;;5.00;99.90;;;;;;5018980;28;20050;-94
2022/01/17 01:05:16;;;;;;;18.77;1.73;;;5.10;99.90;;;;;;5018770;28;20051;-92
2022/01/17 01:07:43;;;;;;;15.13;1.70;;;5.10;99.90;;;;;;5018727;28;20539;-96
2022/01/17 01:10:12;;;;;;;17.50;2.33;;;5.40;99.90;;;;;;5018952;28;20140;-91
2022/01/17 01:12:46;;;;;;;16.55;2.50;;;5.20;99.90;;;;;;5018502;28;20388;-93
2022/01/17 01:15:20;;;;;;;14.32;2.00;;;5.20;99.90;;;;;;5018804;28;20127;-92
2022/01/17 01:17:49;;;;;;;21.17;2.55;;;5.30;99.90;;;;;;5018828;28;20053;-93
2022/01/17 01:20:33;;;;;;;18.63;1.92;;;5.20;99.90;;;;;;5018592;28;20148;-92
2022/01/17 01:28:28;;;;;;;17.92;2.00;;;5.30;99.90;;;;;;5035155;28;20061;-92
2022/01/17 01:30:56;;;;;;;14.38;1.80;;;5.10;99.90;;;;;;5018660;28;20139;-94
2022/01/17 01:33:35;;;;;;;17.08;1.70;;;5.00;99.90;;;;;;5017941;28;20061;-94
2022/01/17 01:36:06;;;;;;;11.27;1.60;;;5.00;99.90;;;;;;5018269;28;20053;-94
2022/01/17 01:38:32;;;;;;;19.42;2.35;;;5.00;99.90;;;;;;5018620;28;20053;-92
2022/01/17 01:40:58;;;;;;;18.75;1.80;;;5.00;99.90;;;;;;5034179;28;20414;-93
2022/01/17 01:43:24;;;;;;;13.57;1.85;;;4.90;99.90;;;;;;5018162;28;20095;-94
2022/01/17 01:45:56;;;;;;;14.18;1.65;;;4.80;99.90;;;;;;5018157;28;20049;-93
2022/01/17 01:48:22;;;;;;;16.73;1.88;;;4.70;99.90;;;;;;5018153;28;20487;-93
2022/01/17 01:50:48;;;;;;;17.17;2.00;;;4.70;99.90;;;;;;5018053;28;20066;-94
2022/01/17 01:53:13;;;;;;;16.65;2.33;;;4.90;99.90;;;;;;5018241;28;20061;-93
2022/01/17 01:55:39;;;;;;;17.88;2.78;;;4.90;99.90;;;;;;5018092;28;20057;-94
2022/01/17 01:58:05;;;;;;;22.40;2.22;;;4.50;99.90;;;;;;5018065;28;20521;-95
2022/01/17 02:00:31;;;;;;;19.60;2.63;;;4.50;99.90;;;;;;5017887;28;20057;-92
2022/01/17 02:02:57;;;;;;;18.52;2.20;;;4.40;99.90;;;;;;5017610;28;20123;-93
2022/01/17 02:05:23;;;;;;;20.02;2.35;;;4.40;99.90;;;;;;5017819;28;20060;-94
2022/01/17 02:07:49;;;;;;;15.70;1.95;;;4.60;99.90;;;;;;5034246;28;20487;-94
2022/01/17 02:10:15;;;;;;;19.13;1.95;;;4.40;99.90;;;;;;5018219;28;20061;-93
2022/01/17 02:12:40;;;;;;;16.80;1.90;;;4.50;99.90;;;;;;5018055;28;20054;-93
2022/01/17 02:15:11;;;;;;;16.25;2.28;;;4.40;99.90;;;;;;5017775;28;20388;-93
2022/01/17 02:17:46;;;;;;;14.77;2.17;;;4.40;99.90;;;;;;5017650;28;20053;-93
2022/01/17 02:20:17;;;;;;;20.30;2.00;;;4.40;99.90;;;;;;5034263;28;20057;-93
2022/01/17 02:22:43;;;;;;;17.90;1.95;;;4.50;99.90;;;;;;5017491;28;20075;-95
2022/01/17 02:25:09;;;;;;;19.77;2.72;;;4.60;99.90;;;;;;5033833;28;20057;-94
2022/01/17 02:27:35;;;;;;;11.93;1.80;;;4.50;99.90;;;;;;5017498;28;20490;-92
2022/01/17 02:30:02;;;;;;;18.60;2.42;;;4.70;99.90;;;;;;5017885;28;20049;-92
2022/01/17 02:32:28;;;;;;;24.52;2.45;;;4.60;99.90;;;;;;5017347;28;20064;-93
2022/01/17 02:35:11;;;;;;;20.15;2.08;;;4.50;99.90;;;;;;5017377;28;20449;-92
2022/01/17 02:37:36;;;;;;;20.23;2.22;;;4.60;99.90;;;;;;5017285;28;20491;-92
2022/01/17 02:40:02;;;;;;;20.80;2.10;;;4.60;99.90;;;;;;5017127;28;20060;-93
2022/01/17 02:42:28;;;;;;;12.90;2.28;;;4.50;99.90;;;;;;5017649;28;20080;-94
2022/01/17 02:45:00;;;;;;;22.67;2.28;;;4.50;99.90;;;;;;5033342;28;20085;-93
2022/01/17 02:47:25;;;;;;;22.15;2.03;;;4.50;99.90;;;;;;5017054;28;20105;-92
2022/01/17 02:49:51;;;;;;;23.23;2.88;;;4.80;99.90;;;;;;5017061;28;20084;-95
2022/01/17 02:52:19;;;;;;;20.30;2.97;;;4.60;99.90;;;;;;5016357;28;20072;-94
2022/01/17 02:54:45;;;;;;;19.55;2.38;;;4.20;99.90;;;;;;5017055;28;20488;-94
2022/01/17 02:57:11;;;;;;;15.38;2.28;;;4.30;99.90;;;;;;5017121;28;20057;-93
2022/01/17 02:59:37;;;;;;;24.92;2.38;;;4.10;99.90;;;;;;5033227;28;20054;-93
2022/01/17 03:02:04;;;;;;;17.17;2.22;;;4.00;99.90;;;;;;5032980;28;20542;-93
2022/01/17 03:04:32;;;;;;;15.63;2.03;;;4.00;99.90;;;;;;5016640;28;20046;-93
2022/01/17 03:06:59;;;;;;;19.92;2.22;;;4.20;99.90;;;;;;5016597;28;20576;-93
2022/01/17 03:09:26;;;;;;;21.00;2.28;;;4.30;99.90;;;;;;5016789;28;20204;-93
2022/01/17 03:11:52;;;;;;;22.85;2.25;;;4.00;99.90;;;;;;5016879;28;20564;-93
2022/01/17 03:14:18;;;;;;;14.50;2.28;;;3.90;99.90;;;;;;5016846;28;20140;-93
2022/01/17 03:16:47;;;;;;;18.88;1.85;;;3.90;99.90;;;;;;5016434;28;20056;-92
2022/01/17 03:19:12;;;;;;;21.08;2.78;;;3.90;99.90;;;;;;5033072;28;20061;-93
2022/01/17 03:21:38;;;;;;;21.58;2.45;;;4.00;99.90;;;;;;5017111;28;20406;-92
2022/01/17 03:24:04;;;;;;;24.88;2.22;;;4.10;99.90;;;;;;5016288;28;20056;-92
2022/01/17 03:26:30;;;;;;;22.27;2.35;;;3.90;99.90;;;;;;5033412;28;20533;-93
2022/01/17 03:29:01;;;;;;;17.98;2.28;;;4.20;99.90;;;;;;5032790;28;20510;-93
2022/01/17 03:31:27;;;;;;;18.20;2.13;;;4.00;99.90;;;;;;5032490;28;20664;-92
2022/01/17 03:33:53;;;;;;;19.65;1.83;;;3.90;99.90;;;;;;5016641;28;20553;-92
2022/01/17 03:36:18;;;;;;;20.83;2.10;;;3.90;99.90;;;;;;5016296;28;20053;-94
2022/01/17 03:38:44;;;;;;;15.90;1.95;;;3.90;99.90;;;;;;5016498;28;20053;-94
2022/01/17 03:41:14;;;;;;;16.75;1.83;;;3.90;99.90;;;;;;5032191;28;20053;-93
2022/01/17 03:43:39;;;;;;;18.20;1.95;;;3.90;99.90;;;;;;5032594;28;20053;-92
2022/01/17 03:46:05;;;;;;;22.20;2.92;;;3.90;99.90;;;;;;5015881;28;20053;-93
2022/01/17 03:48:32;;;;;;;14.60;2.00;;;3.90;99.90;;;;;;5016164;28;20054;-93
2022/01/17 03:51:00;;;;;;;16.13;1.98;;;4.00;99.90;;;;;;5016144;28;20058;-92
2022/01/17 03:53:27;;;;;;;16.55;2.33;;;4.00;99.90;;;;;;5016289;28;20143;-92
2022/01/17 03:55:54;;;;;;;17.85;2.25;;;4.00;99.90;;;;;;5032372;28;20136;-92
2022/01/17 03:58:21;;;;;;;11.98;1.52;;;4.00;99.90;;;;;;5016156;28;20049;-91
2022/01/17 04:00:48;;;;;;;14.77;1.50;;;4.00;99.90;;;;;;5015889;28;20056;-92
2022/01/17 04:03:16;;;;;;;18.30;2.10;;;4.20;99.90;;;;;;5033918;28;20059;-94
2022/01/17 04:05:41;;;;;;;18.02;1.85;;;4.30;99.90;;;;;;5020398;28;20557;-93
2022/01/17 04:08:08;;;;;;;19.05;2.35;;;4.40;99.90;;;;;;5020148;28;20055;-93
2022/01/17 04:10:34;;;;;;;18.25;2.08;;;4.40;99.90;;;;;;5020197;28;20061;-92
2022/01/17 04:13:03;;;;;;;16.25;1.88;;;4.50;99.90;;;;;;5019921;28;20128;-93
2022/01/17 04:15:29;;;;;;;12.70;2.08;;;4.80;99.90;;;;;;5019506;28;20045;-92
2022/01/17 04:17:56;;;;;;;14.38;2.25;;;4.50;99.90;;;;;;5019827;28;20096;-95
2022/01/17 04:20:27;;;;;;;24.33;2.00;;;4.50;99.90;;;;;;5036245;28;20414;-93
2022/01/17 04:22:55;;;;;;;13.50;1.90;;;4.50;99.90;;;;;;5019648;28;20550;-94
2022/01/17 04:25:23;;;;;;;18.25;1.92;;;4.50;99.90;;;;;;5019871;28;20200;-92
2022/01/17 04:27:49;;;;;;;16.27;1.95;;;4.40;99.90;;;;;;5019804;28;20057;-93
2022/01/17 04:30:15;;;;;;;20.77;2.13;;;4.50;99.90;;;;;;5019491;28;20144;-94
2022/01/17 04:32:45;;;;;;;20.90;2.03;;;4.30;99.90;;;;;;5019217;28;20525;-93
2022/01/17 04:35:12;;;;;;;10.82;2.03;;;4.30;99.90;;;;;;5019672;28;20053;-93
2022/01/17 04:37:38;;;;;;;18.20;1.90;;;4.20;99.90;;;;;;5019825;28;20060;-93
2022/01/17 04:40:05;;;;;;;20.40;2.33;;;4.20;99.90;;;;;;5019152;28;20053;-93
2022/01/17 04:42:32;;;;;;;18.02;1.70;;;4.10;99.90;;;;;;5019284;28;20063;-93
2022/01/17 04:45:11;;;;;;;15.52;1.80;;;4.10;99.90;;;;;;5035200;28;20128;-92
2022/01/17 04:47:39;;;;;;;13.60;1.52;;;4.20;99.90;;;;;;5019587;28;20089;-93
2022/01/17 04:50:11;;;;;;;20.67;2.17;;;4.00;99.90;;;;;;5019332;28;20057;-92
2022/01/17 04:52:37;;;;;;;12.35;2.20;;;4.00;99.90;;;;;;5018419;28;20060;-95
2022/01/17 04:55:09;;;;;;;18.20;2.05;;;4.00;99.90;;;;;;5019429;28;20365;-93
2022/01/17 04:57:36;;;;;;;17.75;2.38;;;4.00;99.90;;;;;;5018815;28;20061;-93
2022/01/17 05:00:04;;;;;;;15.13;2.25;;;4.40;99.90;;;;;;5019154;28;20137;-92
2022/01/17 05:02:33;;;;;;;16.90;1.88;;;4.40;99.90;;;;;;5019352;28;20061;-93
2022/01/17 05:04:59;;;;;;;17.55;1.80;;;4.40;99.90;;;;;;5018765;28;20050;-93
2022/01/17 05:07:25;;;;;;;16.05;1.90;;;4.30;99.90;;;;;;5018831;28;20089;-94
2022/01/17 05:09:50;;;;;;;13.80;2.00;;;4.40;99.90;;;;;;5018732;28;20054;-93
2022/01/17 05:12:16;;;;;;;17.88;2.03;;;4.50;99.90;;;;;;5018590;28;20050;-92
2022/01/17 05:14:47;;;;;;;18.80;1.85;;;4.60;99.90;;;;;;5018627;28;20053;-92
2022/01/17 05:17:39;;;;;;;15.13;2.00;;;4.70;99.90;;;;;;5019298;28;20052;-93
2022/01/17 05:20:06;;;;;;;15.60;2.13;;;4.80;99.90;;;;;;5019523;28;20095;-94
2022/01/17 05:22:36;;;;;;;19.40;2.28;;;4.90;99.90;;;;;;5018344;28;20089;-93
2022/01/17 05:25:09;;;;;;;24.50;2.65;;;5.00;99.90;;;;;;5018821;28;20049;-93
2022/01/17 05:27:35;;;;;;;20.35;2.28;;;5.00;99.90;;;;;;5018967;28;20134;-92
2022/01/17 05:30:04;;;;;;;23.60;2.35;;;5.10;99.90;;;;;;5035247;28;20049;-94
2022/01/17 05:32:30;;;;;;;15.18;1.73;;;5.00;99.90;;;;;;5035016;28;20046;-93
2022/01/17 05:34:56;;;;;;;22.33;2.47;;;5.00;99.90;;;;;;5018582;28;20466;-93
2022/01/17 05:37:21;;;;;;;17.08;1.92;;;5.00;99.90;;;;;;5018156;28;20569;-92
2022/01/17 05:39:47;;;;;;;12.45;2.08;;;5.10;99.90;;;;;;5034906;28;20506;-93
2022/01/17 05:42:17;;;;;;;16.60;2.10;;;5.10;99.90;;;;;;5018213;28;20049;-92
2022/01/17 05:44:44;;;;;;;25.52;3.15;;;5.40;99.90;;;;;;5034686;28;20056;-94
2022/01/17 05:47:10;;;;;;;16.00;2.17;;;5.30;99.90;;;;;;5018138;28;20065;-93
2022/01/17 05:49:36;;;;;;;13.65;2.55;;;5.30;99.90;;;;;;5018586;28;20419;-92
2022/01/17 05:52:02;;;;;;;15.05;2.65;;;5.30;99.90;;;;;;5018092;28;20045;-94
2022/01/17 05:54:28;;;;;;;17.45;2.60;;;5.30;99.90;;;;;;5034671;28;20506;-93
2022/01/17 05:56:53;;;;;;;12.63;2.70;;;5.30;99.90;;;;;;5034514;28;20099;-92
2022/01/17 05:59:19;;;;;;;18.27;2.33;;;5.40;99.90;;;;;;5018104;28;20057;-91
2022/01/17 06:01:45;;;;;;;21.42;2.83;;;5.40;99.90;;;;;;5034630;28;20053;-94
2022/01/17 06:04:10;;;;;;;19.92;3.47;;;5.40;99.90;;;;;;5034447;28;20140;-92
2022/01/17 06:06:36;;;;;;;18.58;2.78;;;5.40;99.90;;;;;;5018056;28;20123;-94
2022/01/17 06:09:02;;;;;;;14.05;2.80;;;5.40;99.90;;;;;;5017590;28;20049;-91
2022/01/17 06:11:28;;;;;;;19.27;3.92;;;5.40;99.90;;;;;;5034389;28;20049;-92
2022/01/17 06:13:54;;;;;;;18.10;3.70;;;5.60;99.90;;;;;;5017829;28;20045;-93
2022/01/17 06:16:20;;;;;;;21.98;3.95;;;5.40;99.90;;;;;;5034158;28;20146;-93
2022/01/17 06:18:46;;;;;;;19.73;4.18;;;5.40;99.90;;;;;;5034067;28;20053;-92
2022/01/17 06:21:12;;;;;;;21.02;4.28;;;5.50;99.90;;;;;;5034384;28;20046;-92
2022/01/17 06:23:37;;;;;;;20.25;4.90;;;5.50;99.90;;;;;;5017246;28;20110;-93
2022/01/17 06:26:03;;;;;;;20.08;5.00;;;5.60;99.90;;;;;;5017039;28;20411;-92
2022/01/17 06:28:29;;;;;;;22.73;5.00;;;5.60;99.90;;;;;;5017309;28;20057;-93
2022/01/17 06:30:54;;;;;;;15.07;4.95;;;5.90;99.90;;;;;;5033691;28;20151;-92
2022/01/17 06:33:20;;;;;;;23.17;4.88;;;5.70;99.90;;;;;;5033544;28;20058;-92
2022/01/17 06:35:46;;;;;;;22.52;5.50;;;5.70;99.90;;;;;;5017297;28;20123;-92
2022/01/17 06:38:12;;;;;;;20.73;5.43;;;5.70;99.90;;;;;;5016411;28;20557;-92
2022/01/17 06:40:37;;;;;;;17.55;5.28;;;5.90;99.90;;;;;;5033803;28;20387;-93
2022/01/17 06:43:06;;;;;;;17.05;4.88;;;5.60;99.90;;;;;;5034222;28;20160;-94
2022/01/17 06:45:32;;;;;;;19.17;4.82;;;5.90;99.90;;;;;;5017050;28;20049;-91
2022/01/17 06:47:57;;;;;;;26.83;6.45;;;5.80;99.90;;;;;;5032986;28;20053;-92
2022/01/17 06:50:23;;;;;;;24.67;5.82;;;5.80;99.90;;;;;;5017670;28;20057;-93
2022/01/17 06:52:49;;;;;;;21.40;6.18;;;5.80;99.90;;;;;;5033320;28;20411;-92
2022/01/17 06:55:15;;;;;;;18.60;6.47;;;5.80;99.90;;;;;;5033496;28;20092;-92
2022/01/17 06:57:41;;;;;;;23.67;6.50;;;5.90;99.90;;;;;;5033518;28;20049;-93
2022/01/17 07:00:10;;;;;;;25.25;6.15;;;5.70;99.90;;;;;;5033350;28;20057;-91
2022/01/17 07:02:36;;;;;;;22.55;6.57;;;5.70;99.90;;;;;;5016788;28;20426;-91
2022/01/17 07:05:02;;;;;;;28.90;6.47;;;5.80;99.90;;;;;;5033187;28;20499;-94
2022/01/17 07:07:28;;;;;;;19.73;6.32;;;5.80;99.90;;;;;;5017269;28;20056;-91
2022/01/17 07:09:53;;;;;;;23.73;6.70;;;5.90;99.90;;;;;;5016328;28;20049;-93
2022/01/17 07:12:19;;;;;;;27.67;7.65;;;6.20;99.90;;;;;;5016717;28;20088;-93
2022/01/17 07:14:45;;;;;;;30.02;8.07;;;5.80;99.90;;;;;;5017019;28;20056;-94
2022/01/17 07:17:12;;;;;;;29.67;7.88;;;6.00;99.90;;;;;;5033322;28;20058;-91
2022/01/17 07:19:39;;;;;;;24.80;7.90;;;6.00;99.90;;;;;;5016732;28;20080;-91
2022/01/17 07:22:06;;;;;;;30.48;7.68;;;6.00;99.90;;;;;;5032603;28;20555;-94
2022/01/17 07:24:32;;;;;;;30.35;7.80;;;5.90;99.90;;;;;;5015725;28;20411;-91
2022/01/17 07:26:58;;;;;;;28.13;6.95;;;5.80;99.90;;;;;;5016399;28;20060;-92
2022/01/17 07:29:26;;;;;;;38.03;8.65;;;6.00;99.90;;;;;;5016232;28;20057;-92
2022/01/17 07:31:52;;;;;;;29.85;8.10;;;5.80;99.90;;;;;;5015754;28;20054;-92
2022/01/17 07:34:18;;;;;;;31.40;8.10;;;5.90;99.90;;;;;;5015805;28;20565;-93
2022/01/17 07:36:44;;;;;;;32.88;7.95;;;5.80;99.90;;;;;;5032490;28;20049;-90
2022/01/17 07:39:10;;;;;;;32.53;7.68;;;5.90;99.90;;;;;;5015316;28;20049;-92
2022/01/17 07:41:36;;;;;;;40.08;8.18;;;5.70;99.90;;;;;;5015325;28;20053;-92
2022/01/17 07:44:03;;;;;;;41.45;7.72;;;5.70;99.90;;;;;;5015540;28;20048;-90
2022/01/17 07:46:55;;;;;;;34.78;7.55;;;5.90;99.90;;;;;;5032257;28;20049;-91
2022/01/17 07:49:22;;;;;;;36.30;8.00;;;5.70;99.90;;;;;;5031618;28;20064;-94
2022/01/17 07:51:58;;;;;;;36.20;7.38;;;5.70;99.90;;;;;;5032119;28;20049;-91
2022/01/17 07:54:26;;;;;;;35.58;7.32;;;5.70;99.90;;;;;;5032433;28;20246;-91
2022/01/17 07:56:52;;;;;;;30.08;6.45;;;5.90;99.90;;;;;;5032258;28;20046;-92
2022/01/17 07:59:20;;;;;;;39.28;6.68;;;5.80;99.90;;;;;;5032493;28;20056;-91
2022/01/17 08:01:47;;;;;;;30.67;6.97;;;5.80;99.90;;;;;;5031992;28;20065;-93
2022/01/17 08:04:12;;;;;;;33.65;6.47;;;5.80;99.90;;;;;;5032105;28;20050;-91
2022/01/17 08:06:39;;;;;;;34.90;6.43;;;5.80;99.90;;;;;;5032143;28;20056;-91
2022/01/17 08:09:13;;;;;;;25.52;6.30;;;5.80;99.90;;;;;;5032514;28;20065;-92
2022/01/17 08:11:38;;;;;;;30.13;5.85;;;6.10;99.90;;;;;;5015900;28;20050;-92
2022/01/17 08:14:04;;;;;;;23.48;5.68;;;5.90;99.90;;;;;;5032146;28;20510;-91
2022/01/17 08:16:30;;;;;;;38.83;6.40;;;5.90;99.90;;;;;;5032078;28;20134;-92
2022/01/17 08:18:56;;;;;;;35.00;5.88;;;5.90;99.90;;;;;;5015985;28;20060;-92
2022/01/17 08:21:22;;;;;;;35.53;5.05;;;5.90;99.90;;;;;;5032299;28;20053;-93
2022/01/17 08:23:49;;;;;;;29.27;5.82;;;5.90;99.90;;;;;;5015781;28;20042;-93
2022/01/17 08:26:15;;;;;;;35.60;5.00;;;5.90;99.90;;;;;;5032397;28;20045;-93
2022/01/17 08:28:41;;;;;;;30.77;5.18;;;5.90;99.90;;;;;;5016399;28;20054;-93
2022/01/17 08:31:07;;;;;;;35.47;5.03;;;5.90;99.90;;;;;;5033205;28;20473;-92
2022/01/17 08:33:34;;;;;;;31.63;4.72;;;6.00;99.90;;;;;;5015495;28;20053;-94
2022/01/17 08:35:59;;;;;;;30.23;4.20;;;6.00;99.90;;;;;;4995239;28;20053;-93
2022/01/17 08:38:28;;;;;;;25.65;3.78;;;6.10;99.90;;;;;;5015726;28;20395;-92
2022/01/17 08:40:55;;;;;;;35.95;4.60;;;6.00;99.90;;;;;;5031787;28;20093;-92
2022/01/17 08:43:21;;;;;;;30.38;4.18;;;6.30;99.90;;;;;;5048626;28;20411;-92
2022/01/17 08:45:48;;;;;;;37.60;4.10;;;6.30;99.90;;;;;;5032515;28;20049;-94
2022/01/17 08:48:15;;;;;;;30.00;3.83;;;6.20;99.90;;;;;;5032274;28;20092;-92
2022/01/17 08:50:42;;;;;;;30.15;4.28;;;6.10;99.90;;;;;;5034316;28;20432;-92
2022/01/17 08:53:13;;;;;;;27.45;3.70;;;6.20;99.90;;;;;;5037667;28;20556;-93
2022/01/17 08:55:39;;;;;;;;;;;6.10;99.90;;;;;;5038558;28;20050;-93
2022/01/17 08:58:06;;;;;;;30.45;3.58;;;6.20;99.90;;;;;;5020912;28;20345;-93
2022/01/17 09:00:32;;;;;;;41.90;5.15;;;6.20;99.90;;;;;;5019392;28;20410;-92
2022/01/17 09:03:01;;;;;;;26.25;3.90;;;6.40;99.90;;;;;;5035094;28;20192;-92
2022/01/17 09:05:28;;;;;;;32.78;4.35;;;6.40;99.90;;;;;;5035029;28;20060;-93
2022/01/17 09:07:54;;;;;;;23.95;3.70;;;6.40;99.90;;;;;;5027221;28;20060;-92
2022/01/17 09:10:20;;;;;;;30.70;4.25;;;6.50;99.90;;;;;;5035017;28;20057;-92
2022/01/17 09:12:45;;;;;;;32.15;4.30;;;6.50;99.90;;;;;;5035003;28;20056;-91
2022/01/17 09:15:11;;;;;;;34.63;4.30;;;6.60;99.90;;;;;;5018866;28;20053;-94
2022/01/17 09:17:37;;;;;;;33.50;3.90;;;6.60;99.90;;;;;;5018399;28;20093;-91
2022/01/17 09:20:05;;;;;;;29.20;3.60;;;6.70;99.90;;;;;;5018358;28;20103;-95
2022/01/17 09:22:34;;;;;;;33.25;4.00;;;6.70;99.90;;;;;;5035315;28;20056;-93
2022/01/17 09:25:00;;;;;;;32.65;3.75;;;6.70;99.90;;;;;;5018230;28;20495;-92
2022/01/17 09:27:26;;;;;;;36.08;4.47;;;6.80;99.90;;;;;;5034879;28;20053;-91
2022/01/17 09:29:53;;;;;;;32.13;4.05;;;6.80;99.90;;;;;;5034808;28;20088;-92
2022/01/17 09:32:18;;;;;;;29.10;3.88;;;6.80;99.90;;;;;;5018069;28;20100;-91
2022/01/17 09:34:47;;;;;;;31.27;4.47;;;6.90;99.90;;;;;;5018251;28;20092;-92
2022/01/17 09:37:13;;;;;;;30.80;4.00;;;6.90;99.90;;;;;;5018600;28;20092;-92
2022/01/17 09:39:39;;;;;;;36.05;3.80;;;7.00;99.90;;;;;;5051042;28;20053;-92
2022/01/17 09:42:06;;;;;;;36.03;4.40;;;7.30;99.90;;;;;;5017741;28;20127;-91
2022/01/17 09:44:34;;;;;;;31.60;3.80;;;7.10;99.90;;;;;;5017827;28;20049;-92
2022/01/17 09:47:04;;;;;;;34.55;4.22;;;7.10;99.90;;;;;;5018052;28;20055;-91
2022/01/17 09:52:33;;;;;;;25.70;3.40;;;7.40;99.90;;;;;;5034327;28;20370;-91
2022/01/17 09:55:13;;;;;;;28.90;3.55;;;7.60;99.90;;;;;;5034322;28;20053;-92
2022/01/17 09:57:48;;;;;;;29.55;4.43;;;7.90;99.90;;;;;;5017827;28;20112;-92
2022/01/17 10:00:16;;;;;;;31.88;3.88;;;7.90;99.90;;;;;;5035029;28;20045;-92
2022/01/17 10:02:42;;;;;;;36.33;4.53;;;8.00;99.90;;;;;;5018688;28;20061;-93
2022/01/17 10:05:10;;;;;;;24.30;3.88;;;8.30;99.90;;;;;;5017346;28;20050;-93
2022/01/17 10:08:01;;;;;;;26.70;3.65;;;8.50;99.90;;;;;;5034373;28;20089;-92
2022/01/17 10:10:41;;;;;;;;;;;8.50;99.90;;;;;;5018167;28;20061;-93
2022/01/17 10:13:14;;;;;;;25.40;4.13;;;8.60;99.90;;;;;;5018743;28;20366;-92
2022/01/17 10:15:58;;;;;;;25.42;3.60;;;8.70;99.90;;;;;;5018110;28;20052;-92
2022/01/17 10:18:25;;;;;;;31.73;3.90;;;8.90;99.90;;;;;;5017559;28;20480;-92
2022/01/17 10:20:56;;;;;;;37.60;5.05;;;8.90;99.90;;;;;;5017205;28;20507;-92
2022/01/17 10:23:42;;;;;;;38.65;5.63;;;8.80;99.90;;;;;;5017333;28;20137;-91
2022/01/17 10:26:20;;;;;;;36.42;5.40;;;8.70;99.90;;;;;;5031113;28;20200;-91
2022/01/17 10:37:14;;;;;;;35.13;4.50;;;9.80;99.90;;;;;;4954836;29;20177;-92
2022/01/17 10:39:54;;;;;;;33.63;3.97;;;9.60;99.90;;;;;;4953940;29;20051;-92
2022/01/17 10:42:23;;;;;;;29.13;4.35;;;9.50;99.90;;;;;;4938350;29;20648;-92
2022/01/17 10:44:49;;;;;;;33.22;4.63;;;9.50;99.90;;;;;;4938265;29;20142;-93
2022/01/17 10:47:28;;;;;;;28.25;4.45;;;9.60;99.90;;;;;;4938066;29;20157;-92
2022/01/17 10:50:10;;;;;;;42.65;4.82;;;9.60;99.90;;;;;;4938019;29;20055;-92
2022/01/17 10:52:49;;;;;;;28.75;4.60;;;9.60;99.90;;;;;;4936796;29;20173;-91
2022/01/17 10:55:23;;;;;;;33.80;4.72;;;9.70;99.90;;;;;;4938047;29;20051;-92
2022/01/17 10:57:53;;;;;;;30.05;4.45;;;10.00;99.90;;;;;;4937574;29;20168;-92
2022/01/17 11:00:22;;;;;;;32.80;5.18;;;10.00;99.90;;;;;;4937959;29;20066;-91
2022/01/17 11:02:51;;;;;;;33.15;5.10;;;10.10;99.90;;;;;;4937225;29;20065;-91
2022/01/17 11:05:19;;;;;;;37.85;4.47;;;10.50;99.90;;;;;;4937278;29;20142;-92
2022/01/17 11:07:50;;;;;;;32.40;5.30;;;10.00;99.90;;;;;;4937359;29;20067;-93
2022/01/17 11:10:31;;;;;;;38.25;5.43;;;10.00;99.90;;;;;;4946319;28;20059;-91
2022/01/17 11:13:01;;;;;;;37.78;4.85;;;10.00;99.90;;;;;;5015716;28;20049;-91
2022/01/17 11:15:33;;;;;;;36.53;4.70;;;10.00;99.90;;;;;;5016295;28;20199;-94
2022/01/17 11:18:22;;;;;;;32.22;5.40;;;10.10;99.90;;;;;;5016527;28;20662;-92
2022/01/17 11:20:58;;;;;;;36.45;5.70;;;10.00;99.90;;;;;;5016167;28;20057;-92
2022/01/17 11:23:25;;;;;;;35.83;4.57;;;9.80;99.90;;;;;;5015940;28;20507;-91
2022/01/17 11:25:54;;;;;;;36.72;5.30;;;9.60;99.90;;;;;;5016243;28;20052;-93
2022/01/17 11:28:23;;;;;;;35.55;5.50;;;9.50;99.90;;;;;;5032745;28;20072;-93
2022/01/17 11:30:58;;;;;;;29.48;4.38;;;9.70;99.90;;;;;;5033254;28;20049;-95
2022/01/17 11:33:27;;;;;;;29.17;5.22;;;9.40;99.90;;;;;;4997554;28;20053;-92
2022/01/17 11:35:54;;;;;;;46.85;6.07;;;9.30;99.90;;;;;;5032504;28;20046;-92
2022/01/17 11:38:28;;;;;;;42.38;6.05;;;9.40;99.90;;;;;;5032276;28;20490;-91
2022/01/17 11:40:55;;;;;;;46.28;6.38;;;9.20;99.90;;;;;;5015439;28;20049;-92
2022/01/17 11:43:33;;;;;;;35.75;5.20;;;9.30;99.90;;;;;;5016374;28;20096;-92
2022/01/17 11:46:19;;;;;;;44.55;5.55;;;9.70;99.90;;;;;;5015900;28;20088;-92
2022/01/17 11:49:02;;;;;;;40.10;5.97;;;10.20;99.90;;;;;;5002213;28;20057;-92
2022/01/17 11:51:46;;;;;;;37.63;5.32;;;10.90;99.90;;;;;;5017028;28;20068;-93
2022/01/17 11:54:24;;;;;;;33.65;5.00;;;11.80;99.90;;;;;;5016468;28;20111;-92
2022/01/17 11:57:21;;;;;;;39.22;6.10;;;12.30;99.90;;;;;;5016218;28;20045;-92
2022/01/17 11:59:49;;;;;;;32.45;5.70;;;12.70;99.90;;;;;;5016104;28;20446;-95
2022/01/17 12:02:20;;;;;;;51.88;6.65;;;12.70;99.90;;;;;;5032535;28;20065;-93
2022/01/17 12:05:07;;;;;;;34.35;6.05;;;12.80;99.90;;;;;;5032570;28;20045;-93
2022/01/17 12:07:53;;;;;;;40.67;6.55;;;12.90;99.90;;;;;;5032410;28;20050;-91
2022/01/17 12:10:21;;;;;;;38.58;5.82;;;12.60;99.90;;;;;;5016349;28;20053;-92
2022/01/17 12:13:17;;;;;;;41.50;6.80;;;12.60;99.90;;;;;;5016018;28;20051;-92
2022/01/17 12:16:10;;;;;;;38.20;5.10;;;12.50;99.90;;;;;;5032392;28;20491;-92
2022/01/17 12:18:41;;;;;;;36.63;5.93;;;12.60;99.90;;;;;;5032675;28;20053;-92
2022/01/17 12:21:32;;;;;;;43.50;6.50;;;12.10;99.90;;;;;;5016203;28;20120;-91
2022/01/17 12:24:21;;;;;;;38.60;5.45;;;12.20;99.90;;;;;;5016208;28;20183;-92
2022/01/17 12:26:53;;;;;;;43.78;6.30;;;11.90;99.90;;;;;;5036417;28;20053;-92
2022/01/17 12:29:35;;;;;;;45.95;6.93;;;11.60;99.90;;;;;;5036500;28;20053;-91
2022/01/17 12:32:06;;;;;;;50.22;6.90;;;11.30;99.90;;;;;;5035884;28;20372;-94
2022/01/17 12:34:41;;;;;;;38.80;5.55;;;11.10;99.90;;;;;;5036072;28;20522;-92
2022/01/17 12:38:03;;;;;;;37.42;5.82;;;11.00;99.90;;;;;;5036139;28;20487;-92
2022/01/17 12:40:34;;;;;;;31.55;5.28;;;10.80;99.90;;;;;;4945121;28;20121;-94
2022/01/17 12:42:59;;;;;;;33.20;5.97;;;10.70;99.90;;;;;;4945702;28;20051;-92
2022/01/17 12:45:34;;;;;;;40.58;5.50;;;10.50;99.90;;;;;;4944404;28;20515;-93
2022/01/17 12:48:03;;;;;;;42.50;6.10;;;10.40;99.90;;;;;;4944153;28;20055;-93
2022/01/17 12:50:32;;;;;;;35.55;5.40;;;10.20;99.90;;;;;;4943788;28;20102;-93
2022/01/17 12:52:59;;;;;;;27.90;4.93;;;10.20;99.90;;;;;;4943720;28;20070;-92
2022/01/17 12:55:37;;;;;;;38.17;5.93;;;10.20;99.90;;;;;;4943945;28;20063;-92
2022/01/17 12:58:19;;;;;;;42.70;6.15;;;10.30;99.90;;;;;;4944126;28;20055;-92
2022/01/17 13:00:53;;;;;;;38.30;6.13;;;10.80;99.90;;;;;;4960247;28;20063;-96
2022/01/17 13:03:21;;;;;;;32.05;5.22;;;10.70;99.90;;;;;;4976628;28;20061;-94
2022/01/17 13:05:48;;;;;;;33.45;6.05;;;11.10;99.90;;;;;;4945444;28;20539;-92
2022/01/17 13:08:14;;;;;;;44.13;5.65;;;11.10;99.90;;;;;;4944450;28;20416;-94
2022/01/17 13:10:43;;;;;;;42.53;5.88;;;10.80;99.90;;;;;;4972693;28;20955;-93
2022/01/17 13:13:15;;;;;;;40.38;6.45;;;10.60;99.90;;;;;;5020272;28;20080;-91